• Join FlightAware (Why Join?)
  • Login
  • US Flag 
05:39AM EDT


 

Airport Tracker/Info


-or-


 

Live Flight TrackerFlight Track Log ✈ JBU1329 ✈ 14-May-2013 ✈ KBOS - KBWI

Flight Track Log - Related Links

Times and Time Zones

All times are in EDT time to prevent confusion due to time zone crossing. See the JBU1329 flight status page for this flight to view local times or setup timezone preferences in your user account.

Time Position Orientation Groundspeed Altitude Reporting Facility
EDT Latitude Longitude Course Direction KTS MPH feet Rate Location/Type
09:18AM 42.3833 -71.0000 262° West 161 185 600  Level KA90
09:19AM 42.4333 -70.9667 26° Northeast 200 230 2,600 1,800 Climbing KA90
09:20AM 42.3713 -70.7309 172° South  Level FlightAware Approximate
09:20AM 42.4500 -70.9000 71° East 260 299 4,400  Level KA90
09:20AM 42.4533 -70.8108 87° East 306 352 6,100 1,980 Climbing Boston Center
09:21AM 42.2805 -70.7459 228° Southwest  Level FlightAware Approximate
09:21AM 42.3981 -70.7419 137° Southeast 279 321 8,100  Level Boston Center
09:22AM 42.2180 -70.8526 240° Southwest  Level FlightAware Approximate
09:22AM 42.3147 -70.7358 177° South 255 293 11,100  Level Boston Center
09:23AM 42.1824 -70.9765 262° West  Level FlightAware Approximate
09:23AM 42.2450 -70.8219 222° Southwest 264 304 12,800  Level Boston Center
09:24AM 42.2133 -70.9375 250° West 328 377 15,600 2,700 Climbing Boston Center
09:25AM 42.1900 -71.0839 258° West 348 400 18,200 2,340 Climbing Boston Center
09:26AM 42.1728 -71.2131 260° West 378 435 20,300 2,100 Climbing Boston Center
09:27AM 42.1514 -71.3536 258° West 384 442 22,400 1,800 Climbing Boston Center
09:29AM 42.1319 -71.4994 260° West 394 453 24,300 1,740 Climbing Boston Center
09:30AM 42.0978 -71.6903 256° West 394 453 26,300 1,740 Climbing Boston Center
09:31AM 42.0758 -71.8386 259° West 400 460 27,800 1,260 Climbing Boston Center
09:32AM 42.0514 -71.9928 258° West 413 475 28,900 1,020 Climbing Boston Center
09:33AM 42.0269 -72.1494 258° West 424 488 29,900 1,500 Climbing Boston Center
09:34AM 41.9711 -72.2950 243° Southwest 437 503 32,000 1,020 Climbing Boston Center
09:35AM 41.9003 -72.4289 235° Southwest 437 503 32,000  Level Boston Center
09:36AM 41.8272 -72.5711 235° Southwest 450 518 32,000  Level Boston Center
09:37AM 41.7519 -72.7072 233° Southwest 463 533 32,000  Level Boston Center
09:38AM 41.6786 -72.8486 235° Southwest 468 539 32,000  Level Boston Center
09:39AM 41.6281 -72.9428 234° Southwest 468 539 32,000  Level Boston Center
09:40AM 41.5397 -73.1086 235° Southwest 468 539 32,000 -300 Level Boston Center
09:41AM 41.4658 -73.2461 234° Southwest 468 539 31,400 -960 Descending Boston Center
09:43AM 41.3236 -73.5089 234° Southwest 476 548 29,200 -1,140 Descending New York Center
09:44AM 41.2497 -73.6411 233° Southwest 463 533 28,100 -660 Descending New York Center
09:45AM 41.1736 -73.7675 231° Southwest 453 521 28,000 -60 Descending New York Center
09:46AM 41.1017 -73.8908 232° Southwest 441 507 28,000  Level New York Center
09:47AM 41.0275 -74.0139 231° Southwest 441 507 28,000  Level New York Center
09:48AM 40.9531 -74.1394 232° Southwest 436 502 28,000  Level New York Center
09:49AM 40.8744 -74.2644 230° Southwest 436 502 28,000  Level New York Center
09:50AM 40.7981 -74.3839 230° Southwest 436 502 28,000  Level New York Center
09:51AM 40.7233 -74.5086 232° Southwest 441 507 28,000 -600 Level New York Center
09:52AM 40.6506 -74.6333 232° Southwest 436 502 26,900 -1,080 Descending New York Center
09:53AM 40.5736 -74.7547 230° Southwest 431 496 25,900 -1,200 Descending New York Center
09:54AM 40.4925 -74.8700 227° Southwest 431 496 24,600 -1,380 Descending New York Center
09:55AM 40.4178 -74.9772 228° Southwest 425 489 23,200 -1,500 Descending New York Center
09:56AM 40.3389 -75.0869 227° Southwest 425 489 21,700 -1,500 Descending New York Center
09:57AM 40.2661 -75.1939 228° Southwest 415 478 20,300 -1,440 Descending New York Center
09:58AM 40.1806 -75.3081 226° Southwest 403 464 18,800 -1,200 Descending New York Center
09:59AM 40.1144 -75.3986 226° Southwest 403 464 18,000 -420 Descending New York Center
10:00AM 40.0372 -75.5072 227° Southwest 390 449 18,000  Level New York Center
10:01AM 39.9708 -75.5978 226° Southwest 385 443 18,000 -60 Level New York Center
10:02AM 39.8953 -75.7117 229° Southwest 385 443 17,900 -960 Descending New York Center
10:03AM 39.8456 -75.8081 236° Southwest 378 435 16,200 -1,620 Descending New York Center
10:05AM 39.7333 -76.0333 237° Southwest 349 402 13,200 -1,500 Descending Potomac TRACON
10:06AM 39.6833 -76.1333 237° Southwest 339 390 11,700 -1,260 Descending Potomac TRACON
10:07AM 39.6333 -76.2167 232° Southwest 307 353 10,700 -1,260 Descending Potomac TRACON
10:08AM 39.5833 -76.3000 232° Southwest 275 316 9,200 -1,620 Descending Potomac TRACON
10:09AM 39.5500 -76.3833 243° Southwest 269 310 7,500 -1,680 Descending Potomac TRACON
10:10AM 39.5000 -76.4500 226° Southwest 279 321 5,900 -1,440 Descending Potomac TRACON
10:10AM 39.4167 -76.4500 180° South 274 315 4,800 -1,080 Descending Potomac TRACON
10:11AM 39.3500 -76.4667 191° South 265 305 3,900 -900 Descending Potomac TRACON
10:12AM 39.2833 -76.4833 191° South 262 302 3,000 -900 Descending Potomac TRACON
10:13AM 39.2000 -76.4833 180° South 258 297 2,100 -600 Descending Potomac TRACON
10:15AM 39.1500 -76.5333 218° Southwest 249 287 1,900 -240 Descending Potomac TRACON